sensor_id;sensor_type;location;lat;lon;timestamp;P1;durP1;ratioP1;P2;durP2;ratioP2
9809;SDS011;4944;52.514;13.192;2022-10-29T00:01:57;10.00;;;4.00;;
9809;SDS011;4944;52.514;13.192;2022-10-29T00:04:23;9.50;;;3.93;;
9809;SDS011;4944;52.514;13.192;2022-10-29T00:06:50;12.23;;;4.10;;
9809;SDS011;4944;52.514;13.192;2022-10-29T00:09:17;8.53;;;4.10;;
9809;SDS011;4944;52.514;13.192;2022-10-29T00:11:43;6.63;;;3.63;;
9809;SDS011;4944;52.514;13.192;2022-10-29T00:14:10;15.27;;;4.40;;
9809;SDS011;4944;52.514;13.192;2022-10-29T00:16:37;9.43;;;4.23;;
9809;SDS011;4944;52.514;13.192;2022-10-29T00:19:06;12.93;;;3.80;;
9809;SDS011;4944;52.514;13.192;2022-10-29T00:21:33;14.80;;;4.20;;
9809;SDS011;4944;52.514;13.192;2022-10-29T00:24:02;8.47;;;3.70;;
9809;SDS011;4944;52.514;13.192;2022-10-29T00:26:29;12.30;;;4.00;;
9809;SDS011;4944;52.514;13.192;2022-10-29T00:28:56;7.90;;;4.00;;
9809;SDS011;4944;52.514;13.192;2022-10-29T00:31:23;8.43;;;3.90;;
9809;SDS011;4944;52.514;13.192;2022-10-29T00:33:50;12.17;;;3.83;;
9809;SDS011;4944;52.514;13.192;2022-10-29T00:36:20;11.40;;;4.30;;
9809;SDS011;4944;52.514;13.192;2022-10-29T00:38:48;10.73;;;4.13;;
9809;SDS011;4944;52.514;13.192;2022-10-29T00:41:16;7.73;;;4.27;;
9809;SDS011;4944;52.514;13.192;2022-10-29T00:43:45;8.67;;;4.20;;
9809;SDS011;4944;52.514;13.192;2022-10-29T00:46:14;9.03;;;4.07;;
9809;SDS011;4944;52.514;13.192;2022-10-29T00:48:47;12.10;;;4.60;;
9809;SDS011;4944;52.514;13.192;2022-10-29T00:51:16;10.00;;;3.60;;
9809;SDS011;4944;52.514;13.192;2022-10-29T00:53:46;9.83;;;4.20;;
9809;SDS011;4944;52.514;13.192;2022-10-29T00:56:17;10.47;;;4.33;;
9809;SDS011;4944;52.514;13.192;2022-10-29T00:58:44;7.67;;;4.00;;
9809;SDS011;4944;52.514;13.192;2022-10-29T01:01:11;8.60;;;4.00;;
9809;SDS011;4944;52.514;13.192;2022-10-29T01:03:39;15.30;;;4.50;;
9809;SDS011;4944;52.514;13.192;2022-10-29T01:06:07;10.87;;;4.70;;
9809;SDS011;4944;52.514;13.192;2022-10-29T01:08:34;11.23;;;4.53;;
9809;SDS011;4944;52.514;13.192;2022-10-29T01:11:04;11.90;;;4.63;;
9809;SDS011;4944;52.514;13.192;2022-10-29T01:13:41;7.37;;;3.93;;
9809;SDS011;4944;52.514;13.192;2022-10-29T01:16:22;9.90;;;3.93;;
9809;SDS011;4944;52.514;13.192;2022-10-29T01:18:55;7.37;;;4.27;;
9809;SDS011;4944;52.514;13.192;2022-10-29T01:21:37;13.67;;;4.47;;
9809;SDS011;4944;52.514;13.192;2022-10-29T01:27:34;10.20;;;4.40;;
9809;SDS011;4944;52.514;13.192;2022-10-29T01:30:15;10.10;;;4.80;;
9809;SDS011;4944;52.514;13.192;2022-10-29T01:32:56;11.23;;;5.17;;
9809;SDS011;4944;52.514;13.192;2022-10-29T01:35:32;6.13;;;4.20;;
9809;SDS011;4944;52.514;13.192;2022-10-29T01:38:09;11.27;;;4.83;;
9809;SDS011;4944;52.514;13.192;2022-10-29T01:40:46;7.57;;;4.80;;
9809;SDS011;4944;52.514;13.192;2022-10-29T01:43:19;11.53;;;4.60;;
9809;SDS011;4944;52.514;13.192;2022-10-29T01:45:51;10.40;;;4.97;;
9809;SDS011;4944;52.514;13.192;2022-10-29T01:48:22;13.23;;;5.30;;
9809;SDS011;4944;52.514;13.192;2022-10-29T01:50:53;8.53;;;4.43;;
9809;SDS011;4944;52.514;13.192;2022-10-29T01:53:23;8.90;;;5.10;;
9809;SDS011;4944;52.514;13.192;2022-10-29T01:55:52;11.33;;;5.03;;
9809;SDS011;4944;52.514;13.192;2022-10-29T01:58:19;14.73;;;5.20;;
9809;SDS011;4944;52.514;13.192;2022-10-29T02:00:48;9.00;;;5.00;;
9809;SDS011;4944;52.514;13.192;2022-10-29T02:03:26;9.87;;;5.17;;
9809;SDS011;4944;52.514;13.192;2022-10-29T02:06:02;12.47;;;4.70;;
9809;SDS011;4944;52.514;13.192;2022-10-29T02:08:38;20.10;;;5.20;;
9809;SDS011;4944;52.514;13.192;2022-10-29T02:11:10;8.10;;;5.13;;
9809;SDS011;4944;52.514;13.192;2022-10-29T02:13:43;7.93;;;4.70;;
9809;SDS011;4944;52.514;13.192;2022-10-29T02:16:15;9.93;;;5.47;;
9809;SDS011;4944;52.514;13.192;2022-10-29T02:18:45;15.40;;;5.63;;
9809;SDS011;4944;52.514;13.192;2022-10-29T02:21:13;12.70;;;5.43;;
9809;SDS011;4944;52.514;13.192;2022-10-29T02:23:41;12.10;;;4.73;;
9809;SDS011;4944;52.514;13.192;2022-10-29T02:26:07;11.07;;;5.13;;
9809;SDS011;4944;52.514;13.192;2022-10-29T02:28:34;10.30;;;5.27;;
9809;SDS011;4944;52.514;13.192;2022-10-29T02:31:01;9.67;;;4.90;;
9809;SDS011;4944;52.514;13.192;2022-10-29T02:33:28;16.13;;;5.47;;
9809;SDS011;4944;52.514;13.192;2022-10-29T02:35:56;9.23;;;5.03;;
9809;SDS011;4944;52.514;13.192;2022-10-29T02:38:23;8.37;;;4.83;;
9809;SDS011;4944;52.514;13.192;2022-10-29T02:40:50;12.70;;;5.13;;
9809;SDS011;4944;52.514;13.192;2022-10-29T02:43:17;12.37;;;4.77;;
9809;SDS011;4944;52.514;13.192;2022-10-29T02:45:43;10.90;;;5.03;;
9809;SDS011;4944;52.514;13.192;2022-10-29T02:48:10;13.83;;;5.13;;
9809;SDS011;4944;52.514;13.192;2022-10-29T02:50:37;15.80;;;5.20;;
9809;SDS011;4944;52.514;13.192;2022-10-29T02:53:05;11.70;;;5.53;;
9809;SDS011;4944;52.514;13.192;2022-10-29T02:55:32;15.07;;;5.33;;
9809;SDS011;4944;52.514;13.192;2022-10-29T02:57:58;12.80;;;4.83;;
9809;SDS011;4944;52.514;13.192;2022-10-29T03:00:25;12.47;;;5.70;;
9809;SDS011;4944;52.514;13.192;2022-10-29T03:02:52;14.70;;;5.10;;
9809;SDS011;4944;52.514;13.192;2022-10-29T03:05:18;11.80;;;5.33;;
9809;SDS011;4944;52.514;13.192;2022-10-29T03:07:45;8.07;;;5.50;;
9809;SDS011;4944;52.514;13.192;2022-10-29T03:10:13;11.13;;;5.27;;
9809;SDS011;4944;52.514;13.192;2022-10-29T03:12:40;13.93;;;5.93;;
9809;SDS011;4944;52.514;13.192;2022-10-29T03:15:07;12.87;;;5.97;;
9809;SDS011;4944;52.514;13.192;2022-10-29T03:17:34;14.53;;;5.23;;
9809;SDS011;4944;52.514;13.192;2022-10-29T03:20:01;12.93;;;5.07;;
9809;SDS011;4944;52.514;13.192;2022-10-29T03:22:28;12.47;;;5.60;;
9809;SDS011;4944;52.514;13.192;2022-10-29T03:24:55;11.87;;;5.27;;
9809;SDS011;4944;52.514;13.192;2022-10-29T03:27:23;9.83;;;5.50;;
9809;SDS011;4944;52.514;13.192;2022-10-29T03:29:50;11.93;;;5.67;;
9809;SDS011;4944;52.514;13.192;2022-10-29T03:32:16;10.60;;;5.77;;
9809;SDS011;4944;52.514;13.192;2022-10-29T03:34:43;15.73;;;5.67;;
9809;SDS011;4944;52.514;13.192;2022-10-29T03:37:10;10.80;;;5.03;;
9809;SDS011;4944;52.514;13.192;2022-10-29T03:39:36;11.93;;;5.70;;
9809;SDS011;4944;52.514;13.192;2022-10-29T03:42:03;10.40;;;4.97;;
9809;SDS011;4944;52.514;13.192;2022-10-29T03:44:31;11.57;;;4.90;;
9809;SDS011;4944;52.514;13.192;2022-10-29T03:46:58;10.67;;;5.43;;
9809;SDS011;4944;52.514;13.192;2022-10-29T03:49:25;10.73;;;5.77;;
9809;SDS011;4944;52.514;13.192;2022-10-29T03:51:51;14.93;;;5.27;;
9809;SDS011;4944;52.514;13.192;2022-10-29T03:54:18;10.70;;;5.30;;
9809;SDS011;4944;52.514;13.192;2022-10-29T03:56:45;13.70;;;5.33;;
9809;SDS011;4944;52.514;13.192;2022-10-29T03:59:12;12.93;;;5.73;;
9809;SDS011;4944;52.514;13.192;2022-10-29T04:01:40;11.23;;;5.70;;
9809;SDS011;4944;52.514;13.192;2022-10-29T04:04:08;9.43;;;5.53;;
9809;SDS011;4944;52.514;13.192;2022-10-29T04:06:34;13.33;;;6.03;;
9809;SDS011;4944;52.514;13.192;2022-10-29T04:09:01;11.87;;;5.50;;
9809;SDS011;4944;52.514;13.192;2022-10-29T04:11:28;13.20;;;5.60;;
9809;SDS011;4944;52.514;13.192;2022-10-29T04:13:55;10.07;;;5.30;;
9809;SDS011;4944;52.514;13.192;2022-10-29T04:16:21;11.90;;;6.13;;
9809;SDS011;4944;52.514;13.192;2022-10-29T04:18:49;11.10;;;5.40;;
9809;SDS011;4944;52.514;13.192;2022-10-29T04:21:17;12.53;;;5.63;;
9809;SDS011;4944;52.514;13.192;2022-10-29T04:23:43;14.83;;;5.60;;
9809;SDS011;4944;52.514;13.192;2022-10-29T04:26:10;13.83;;;5.80;;
9809;SDS011;4944;52.514;13.192;2022-10-29T04:28:37;10.47;;;5.30;;
9809;SDS011;4944;52.514;13.192;2022-10-29T04:31:04;12.93;;;5.83;;
9809;SDS011;4944;52.514;13.192;2022-10-29T04:33:31;12.60;;;5.70;;
9809;SDS011;4944;52.514;13.192;2022-10-29T04:35:59;9.07;;;5.30;;
9809;SDS011;4944;52.514;13.192;2022-10-29T04:38:26;12.87;;;5.87;;
9809;SDS011;4944;52.514;13.192;2022-10-29T04:40:56;9.67;;;5.60;;
9809;SDS011;4944;52.514;13.192;2022-10-29T04:43:23;11.67;;;5.20;;
9809;SDS011;4944;52.514;13.192;2022-10-29T04:45:50;10.70;;;5.80;;
9809;SDS011;4944;52.514;13.192;2022-10-29T04:48:17;14.13;;;5.80;;
9809;SDS011;4944;52.514;13.192;2022-10-29T04:50:45;9.47;;;5.17;;
9809;SDS011;4944;52.514;13.192;2022-10-29T04:53:13;12.00;;;5.80;;
9809;SDS011;4944;52.514;13.192;2022-10-29T04:55:40;10.73;;;5.80;;
9809;SDS011;4944;52.514;13.192;2022-10-29T04:58:11;12.40;;;5.63;;
9809;SDS011;4944;52.514;13.192;2022-10-29T05:00:39;9.43;;;5.40;;
9809;SDS011;4944;52.514;13.192;2022-10-29T05:03:06;11.03;;;5.77;;
9809;SDS011;4944;52.514;13.192;2022-10-29T05:05:34;9.40;;;5.70;;
9809;SDS011;4944;52.514;13.192;2022-10-29T05:08:02;12.53;;;6.20;;
9809;SDS011;4944;52.514;13.192;2022-10-29T05:10:32;11.40;;;6.03;;
9809;SDS011;4944;52.514;13.192;2022-10-29T05:13:01;9.63;;;5.83;;
9809;SDS011;4944;52.514;13.192;2022-10-29T05:15:30;9.03;;;5.37;;
9809;SDS011;4944;52.514;13.192;2022-10-29T05:17:57;14.93;;;6.00;;
9809;SDS011;4944;52.514;13.192;2022-10-29T05:20:24;11.87;;;5.70;;
9809;SDS011;4944;52.514;13.192;2022-10-29T05:22:56;11.73;;;5.50;;
9809;SDS011;4944;52.514;13.192;2022-10-29T05:25:23;11.07;;;5.80;;
9809;SDS011;4944;52.514;13.192;2022-10-29T05:27:58;11.07;;;5.97;;
9809;SDS011;4944;52.514;13.192;2022-10-29T05:30:29;11.97;;;5.53;;
9809;SDS011;4944;52.514;13.192;2022-10-29T05:32:55;10.53;;;5.93;;
9809;SDS011;4944;52.514;13.192;2022-10-29T05:35:22;12.67;;;6.03;;
9809;SDS011;4944;52.514;13.192;2022-10-29T05:37:49;13.67;;;6.20;;
9809;SDS011;4944;52.514;13.192;2022-10-29T05:40:16;8.30;;;5.27;;
9809;SDS011;4944;52.514;13.192;2022-10-29T05:42:43;8.80;;;5.50;;
9809;SDS011;4944;52.514;13.192;2022-10-29T05:45:12;11.03;;;5.47;;
9809;SDS011;4944;52.514;13.192;2022-10-29T05:47:41;18.07;;;6.03;;
9809;SDS011;4944;52.514;13.192;2022-10-29T05:50:09;10.97;;;5.93;;
9809;SDS011;4944;52.514;13.192;2022-10-29T05:52:36;10.93;;;5.10;;
9809;SDS011;4944;52.514;13.192;2022-10-29T05:55:04;11.37;;;6.13;;
9809;SDS011;4944;52.514;13.192;2022-10-29T05:57:31;10.80;;;5.77;;
9809;SDS011;4944;52.514;13.192;2022-10-29T05:59:58;12.63;;;5.97;;
9809;SDS011;4944;52.514;13.192;2022-10-29T06:02:26;12.93;;;6.10;;
9809;SDS011;4944;52.514;13.192;2022-10-29T06:04:53;11.87;;;6.20;;
9809;SDS011;4944;52.514;13.192;2022-10-29T06:07:20;6.87;;;5.40;;
9809;SDS011;4944;52.514;13.192;2022-10-29T06:09:46;8.40;;;5.30;;
9809;SDS011;4944;52.514;13.192;2022-10-29T06:12:13;16.37;;;6.60;;
9809;SDS011;4944;52.514;13.192;2022-10-29T06:14:40;9.43;;;5.57;;
9809;SDS011;4944;52.514;13.192;2022-10-29T06:17:06;14.60;;;6.40;;
9809;SDS011;4944;52.514;13.192;2022-10-29T06:19:34;12.67;;;6.10;;
9809;SDS011;4944;52.514;13.192;2022-10-29T06:22:01;13.90;;;6.13;;
9809;SDS011;4944;52.514;13.192;2022-10-29T06:24:29;15.50;;;6.03;;
9809;SDS011;4944;52.514;13.192;2022-10-29T06:26:55;12.23;;;5.57;;
9809;SDS011;4944;52.514;13.192;2022-10-29T06:29:22;8.80;;;5.80;;
9809;SDS011;4944;52.514;13.192;2022-10-29T06:31:49;8.93;;;5.40;;
9809;SDS011;4944;52.514;13.192;2022-10-29T06:34:15;10.10;;;5.50;;
9809;SDS011;4944;52.514;13.192;2022-10-29T06:36:44;14.47;;;5.93;;
9809;SDS011;4944;52.514;13.192;2022-10-29T06:39:10;11.37;;;5.80;;
9809;SDS011;4944;52.514;13.192;2022-10-29T06:41:37;10.93;;;5.50;;
9809;SDS011;4944;52.514;13.192;2022-10-29T06:44:04;9.63;;;4.93;;
9809;SDS011;4944;52.514;13.192;2022-10-29T06:46:30;9.93;;;5.53;;
9809;SDS011;4944;52.514;13.192;2022-10-29T06:48:59;11.70;;;5.73;;
9809;SDS011;4944;52.514;13.192;2022-10-29T06:51:26;14.40;;;6.30;;
9809;SDS011;4944;52.514;13.192;2022-10-29T06:53:55;11.13;;;5.70;;
9809;SDS011;4944;52.514;13.192;2022-10-29T06:56:21;13.40;;;5.37;;
9809;SDS011;4944;52.514;13.192;2022-10-29T06:58:48;9.97;;;5.63;;
9809;SDS011;4944;52.514;13.192;2022-10-29T07:01:15;13.30;;;6.03;;
9809;SDS011;4944;52.514;13.192;2022-10-29T07:03:41;11.50;;;5.73;;
9809;SDS011;4944;52.514;13.192;2022-10-29T07:06:08;7.70;;;5.27;;
9809;SDS011;4944;52.514;13.192;2022-10-29T07:08:35;11.07;;;5.30;;
9809;SDS011;4944;52.514;13.192;2022-10-29T07:11:03;8.60;;;5.53;;
9809;SDS011;4944;52.514;13.192;2022-10-29T07:13:31;12.80;;;5.70;;
9809;SDS011;4944;52.514;13.192;2022-10-29T07:15:58;12.70;;;6.43;;
9809;SDS011;4944;52.514;13.192;2022-10-29T07:18:24;11.73;;;5.90;;
9809;SDS011;4944;52.514;13.192;2022-10-29T07:20:51;10.93;;;5.67;;
9809;SDS011;4944;52.514;13.192;2022-10-29T07:23:18;10.97;;;5.93;;
9809;SDS011;4944;52.514;13.192;2022-10-29T07:25:45;9.87;;;5.70;;
9809;SDS011;4944;52.514;13.192;2022-10-29T07:28:13;7.87;;;5.53;;
9809;SDS011;4944;52.514;13.192;2022-10-29T07:30:42;11.30;;;5.97;;
9809;SDS011;4944;52.514;13.192;2022-10-29T07:33:09;11.83;;;5.70;;
9809;SDS011;4944;52.514;13.192;2022-10-29T07:35:36;14.23;;;6.20;;
9809;SDS011;4944;52.514;13.192;2022-10-29T07:38:03;10.60;;;5.90;;
9809;SDS011;4944;52.514;13.192;2022-10-29T07:40:31;12.97;;;5.73;;
9809;SDS011;4944;52.514;13.192;2022-10-29T07:42:57;7.73;;;4.93;;
9809;SDS011;4944;52.514;13.192;2022-10-29T07:45:26;8.93;;;5.43;;
9809;SDS011;4944;52.514;13.192;2022-10-29T07:47:59;11.37;;;5.40;;
9809;SDS011;4944;52.514;13.192;2022-10-29T07:50:27;10.70;;;5.27;;
9809;SDS011;4944;52.514;13.192;2022-10-29T07:52:54;8.87;;;5.03;;
9809;SDS011;4944;52.514;13.192;2022-10-29T07:55:23;13.03;;;6.00;;
9809;SDS011;4944;52.514;13.192;2022-10-29T07:57:54;10.00;;;5.80;;
9809;SDS011;4944;52.514;13.192;2022-10-29T08:00:22;12.57;;;5.43;;
9809;SDS011;4944;52.514;13.192;2022-10-29T08:02:51;10.57;;;6.00;;
9809;SDS011;4944;52.514;13.192;2022-10-29T08:05:19;13.10;;;5.60;;
9809;SDS011;4944;52.514;13.192;2022-10-29T08:07:45;12.83;;;5.20;;
9809;SDS011;4944;52.514;13.192;2022-10-29T08:10:12;13.63;;;5.67;;
9809;SDS011;4944;52.514;13.192;2022-10-29T08:12:39;12.63;;;5.20;;
9809;SDS011;4944;52.514;13.192;2022-10-29T08:15:06;9.57;;;5.80;;
9809;SDS011;4944;52.514;13.192;2022-10-29T08:17:34;13.53;;;5.50;;
9809;SDS011;4944;52.514;13.192;2022-10-29T08:20:02;9.33;;;5.47;;
9809;SDS011;4944;52.514;13.192;2022-10-29T08:22:29;8.63;;;5.60;;
9809;SDS011;4944;52.514;13.192;2022-10-29T08:24:56;8.73;;;5.17;;
9809;SDS011;4944;52.514;13.192;2022-10-29T08:27:22;9.90;;;5.87;;
9809;SDS011;4944;52.514;13.192;2022-10-29T08:29:49;7.80;;;5.70;;
9809;SDS011;4944;52.514;13.192;2022-10-29T08:32:16;11.90;;;5.37;;
9809;SDS011;4944;52.514;13.192;2022-10-29T08:34:43;10.20;;;4.83;;
9809;SDS011;4944;52.514;13.192;2022-10-29T08:37:11;10.13;;;5.80;;
9809;SDS011;4944;52.514;13.192;2022-10-29T08:39:37;13.07;;;6.43;;
9809;SDS011;4944;52.514;13.192;2022-10-29T08:42:07;9.47;;;5.90;;
9809;SDS011;4944;52.514;13.192;2022-10-29T08:45:04;12.53;;;5.40;;
9809;SDS011;4944;52.514;13.192;2022-10-29T08:47:43;10.03;;;5.70;;
9809;SDS011;4944;52.514;13.192;2022-10-29T08:50:19;10.53;;;6.07;;
9809;SDS011;4944;52.514;13.192;2022-10-29T08:52:52;11.40;;;6.33;;
9809;SDS011;4944;52.514;13.192;2022-10-29T08:55:20;11.90;;;5.63;;
9809;SDS011;4944;52.514;13.192;2022-10-29T08:57:51;11.33;;;5.97;;
9809;SDS011;4944;52.514;13.192;2022-10-29T09:00:21;13.77;;;5.90;;
9809;SDS011;4944;52.514;13.192;2022-10-29T09:02:50;11.50;;;5.37;;
9809;SDS011;4944;52.514;13.192;2022-10-29T09:05:18;13.40;;;6.23;;
9809;SDS011;4944;52.514;13.192;2022-10-29T09:07:54;12.07;;;6.23;;
9809;SDS011;4944;52.514;13.192;2022-10-29T09:10:31;9.13;;;5.50;;
9809;SDS011;4944;52.514;13.192;2022-10-29T09:13:08;12.67;;;5.77;;
9809;SDS011;4944;52.514;13.192;2022-10-29T09:15:57;12.97;;;5.63;;
9809;SDS011;4944;52.514;13.192;2022-10-29T09:18:37;9.90;;;5.27;;
9809;SDS011;4944;52.514;13.192;2022-10-29T09:21:22;12.60;;;5.53;;
9809;SDS011;4944;52.514;13.192;2022-10-29T09:24:03;11.93;;;5.20;;
9809;SDS011;4944;52.514;13.192;2022-10-29T09:26:39;7.80;;;5.23;;
9809;SDS011;4944;52.514;13.192;2022-10-29T09:29:24;12.37;;;5.83;;
9809;SDS011;4944;52.514;13.192;2022-10-29T09:32:08;10.97;;;4.70;;
9809;SDS011;4944;52.514;13.192;2022-10-29T09:34:40;13.63;;;5.37;;
9809;SDS011;4944;52.514;13.192;2022-10-29T09:37:13;8.43;;;4.37;;
9809;SDS011;4944;52.514;13.192;2022-10-29T09:39:43;11.93;;;5.47;;
9809;SDS011;4944;52.514;13.192;2022-10-29T09:42:12;13.73;;;5.97;;
9809;SDS011;4944;52.514;13.192;2022-10-29T09:44:45;10.00;;;4.90;;
9809;SDS011;4944;52.514;13.192;2022-10-29T09:47:19;15.30;;;5.60;;
9809;SDS011;4944;52.514;13.192;2022-10-29T09:49:55;11.73;;;5.10;;
9809;SDS011;4944;52.514;13.192;2022-10-29T09:52:38;13.70;;;5.10;;
9809;SDS011;4944;52.514;13.192;2022-10-29T09:55:10;9.53;;;5.17;;
9809;SDS011;4944;52.514;13.192;2022-10-29T09:57:43;9.07;;;4.77;;
9809;SDS011;4944;52.514;13.192;2022-10-29T10:00:13;13.20;;;5.57;;
9809;SDS011;4944;52.514;13.192;2022-10-29T10:02:44;12.93;;;5.17;;
9809;SDS011;4944;52.514;13.192;2022-10-29T10:05:19;7.70;;;4.63;;
9809;SDS011;4944;52.514;13.192;2022-10-29T10:08:02;12.37;;;5.53;;
9809;SDS011;4944;52.514;13.192;2022-10-29T10:10:32;9.47;;;4.90;;
9809;SDS011;4944;52.514;13.192;2022-10-29T10:13:01;9.63;;;5.00;;
9809;SDS011;4944;52.514;13.192;2022-10-29T10:15:29;10.10;;;4.80;;
9809;SDS011;4944;52.514;13.192;2022-10-29T10:17:59;12.97;;;4.83;;
9809;SDS011;4944;52.514;13.192;2022-10-29T10:20:29;9.70;;;4.50;;
9809;SDS011;4944;52.514;13.192;2022-10-29T10:22:58;10.33;;;4.53;;
9809;SDS011;4944;52.514;13.192;2022-10-29T10:25:33;11.23;;;4.87;;
9809;SDS011;4944;52.514;13.192;2022-10-29T10:28:03;9.33;;;4.47;;
9809;SDS011;4944;52.514;13.192;2022-10-29T10:30:41;11.53;;;5.40;;
9809;SDS011;4944;52.514;13.192;2022-10-29T10:33:11;13.40;;;5.67;;
9809;SDS011;4944;52.514;13.192;2022-10-29T10:35:49;8.90;;;4.77;;
9809;SDS011;4944;52.514;13.192;2022-10-29T10:38:17;10.40;;;5.00;;
9809;SDS011;4944;52.514;13.192;2022-10-29T10:40:51;10.97;;;5.77;;
9809;SDS011;4944;52.514;13.192;2022-10-29T10:43:20;10.57;;;5.90;;
9809;SDS011;4944;52.514;13.192;2022-10-29T10:45:51;10.87;;;5.23;;
9809;SDS011;4944;52.514;13.192;2022-10-29T10:48:21;9.53;;;5.23;;
9809;SDS011;4944;52.514;13.192;2022-10-29T10:50:50;11.63;;;5.50;;
9809;SDS011;4944;52.514;13.192;2022-10-29T10:53:32;11.83;;;5.20;;
9809;SDS011;4944;52.514;13.192;2022-10-29T10:56:01;11.87;;;5.10;;
9809;SDS011;4944;52.514;13.192;2022-10-29T10:58:29;9.20;;;5.40;;
9809;SDS011;4944;52.514;13.192;2022-10-29T11:01:01;9.00;;;5.20;;
9809;SDS011;4944;52.514;13.192;2022-10-29T11:03:31;12.10;;;5.40;;
9809;SDS011;4944;52.514;13.192;2022-10-29T11:06:05;10.10;;;5.50;;
9809;SDS011;4944;52.514;13.192;2022-10-29T11:08:35;17.30;;;5.83;;
9809;SDS011;4944;52.514;13.192;2022-10-29T11:11:09;8.13;;;5.10;;
9809;SDS011;4944;52.514;13.192;2022-10-29T11:13:38;11.47;;;5.37;;
9809;SDS011;4944;52.514;13.192;2022-10-29T11:16:07;13.53;;;5.87;;
9809;SDS011;4944;52.514;13.192;2022-10-29T11:18:40;12.85;;;5.22;;
9809;SDS011;4944;52.514;13.192;2022-10-29T11:21:11;11.53;;;5.47;;
9809;SDS011;4944;52.514;13.192;2022-10-29T11:23:42;10.33;;;5.03;;
9809;SDS011;4944;52.514;13.192;2022-10-29T11:26:16;11.13;;;5.30;;
9809;SDS011;4944;52.514;13.192;2022-10-29T11:28:51;9.33;;;5.13;;
9809;SDS011;4944;52.514;13.192;2022-10-29T11:31:24;11.50;;;5.13;;
9809;SDS011;4944;52.514;13.192;2022-10-29T11:34:02;10.55;;;4.85;;
9809;SDS011;4944;52.514;13.192;2022-10-29T11:36:36;9.52;;;4.60;;
9809;SDS011;4944;52.514;13.192;2022-10-29T11:39:08;10.30;;;5.20;;
9809;SDS011;4944;52.514;13.192;2022-10-29T11:41:41;9.93;;;4.53;;
9809;SDS011;4944;52.514;13.192;2022-10-29T11:44:12;7.75;;;4.30;;
9809;SDS011;4944;52.514;13.192;2022-10-29T11:46:42;7.35;;;4.28;;
9809;SDS011;4944;52.514;13.192;2022-10-29T11:49:27;10.48;;;4.50;;
9809;SDS011;4944;52.514;13.192;2022-10-29T11:52:07;8.82;;;5.22;;
9809;SDS011;4944;52.514;13.192;2022-10-29T11:54:39;9.73;;;4.80;;
9809;SDS011;4944;52.514;13.192;2022-10-29T11:57:14;9.93;;;4.13;;
9809;SDS011;4944;52.514;13.192;2022-10-29T11:59:54;8.55;;;4.75;;
9809;SDS011;4944;52.514;13.192;2022-10-29T12:02:31;11.23;;;5.00;;
9809;SDS011;4944;52.514;13.192;2022-10-29T12:05:11;14.10;;;4.70;;
9809;SDS011;4944;52.514;13.192;2022-10-29T12:07:54;12.05;;;5.35;;
9809;SDS011;4944;52.514;13.192;2022-10-29T12:10:37;8.45;;;5.10;;
9809;SDS011;4944;52.514;13.192;2022-10-29T12:13:14;10.45;;;4.82;;
9809;SDS011;4944;52.514;13.192;2022-10-29T12:15:50;10.68;;;4.65;;
9809;SDS011;4944;52.514;13.192;2022-10-29T12:18:27;13.30;;;5.63;;
9809;SDS011;4944;52.514;13.192;2022-10-29T12:21:04;10.68;;;4.53;;
9809;SDS011;4944;52.514;13.192;2022-10-29T12:23:40;8.68;;;4.55;;
9809;SDS011;4944;52.514;13.192;2022-10-29T12:26:16;8.35;;;5.18;;
9809;SDS011;4944;52.514;13.192;2022-10-29T12:28:52;8.10;;;4.47;;
9809;SDS011;4944;52.514;13.192;2022-10-29T12:31:25;10.50;;;4.68;;
9809;SDS011;4944;52.514;13.192;2022-10-29T12:33:58;7.63;;;4.88;;
9809;SDS011;4944;52.514;13.192;2022-10-29T12:36:31;10.68;;;5.25;;
9809;SDS011;4944;52.514;13.192;2022-10-29T12:39:02;9.80;;;4.82;;
9809;SDS011;4944;52.514;13.192;2022-10-29T12:41:37;8.20;;;4.68;;
9809;SDS011;4944;52.514;13.192;2022-10-29T12:44:11;11.82;;;5.03;;
9809;SDS011;4944;52.514;13.192;2022-10-29T12:46:43;9.13;;;4.53;;
9809;SDS011;4944;52.514;13.192;2022-10-29T12:49:19;6.72;;;4.55;;
9809;SDS011;4944;52.514;13.192;2022-10-29T12:51:56;9.45;;;5.10;;
9809;SDS011;4944;52.514;13.192;2022-10-29T12:54:29;11.45;;;5.30;;
9809;SDS011;4944;52.514;13.192;2022-10-29T12:57:02;10.95;;;4.97;;
9809;SDS011;4944;52.514;13.192;2022-10-29T12:59:33;8.07;;;4.78;;
9809;SDS011;4944;52.514;13.192;2022-10-29T13:05:14;12.68;;;5.18;;
9809;SDS011;4944;52.514;13.192;2022-10-29T13:10:49;9.50;;;5.72;;
9809;SDS011;4944;52.514;13.192;2022-10-29T13:13:18;7.95;;;4.68;;
9809;SDS011;4944;52.514;13.192;2022-10-29T13:15:56;11.50;;;4.95;;
9809;SDS011;4944;52.514;13.192;2022-10-29T13:18:26;12.93;;;5.85;;
9809;SDS011;4944;52.514;13.192;2022-10-29T13:20:56;10.48;;;5.45;;
9809;SDS011;4944;52.514;13.192;2022-10-29T13:23:30;9.77;;;5.22;;
9809;SDS011;4944;52.514;13.192;2022-10-29T13:25:59;12.32;;;5.30;;
9809;SDS011;4944;52.514;13.192;2022-10-29T13:37:37;10.63;;;5.25;;
9809;SDS011;4944;52.514;13.192;2022-10-29T13:43:16;11.20;;;4.85;;
9809;SDS011;4944;52.514;13.192;2022-10-29T13:45:44;15.75;;;8.90;;
9809;SDS011;4944;52.514;13.192;2022-10-29T13:48:18;13.52;;;6.80;;
9809;SDS011;4944;52.514;13.192;2022-10-29T13:50:50;8.77;;;5.10;;
9809;SDS011;4944;52.514;13.192;2022-10-29T13:53:22;10.18;;;4.93;;
9809;SDS011;4944;52.514;13.192;2022-10-29T13:55:55;12.77;;;5.28;;
9809;SDS011;4944;52.514;13.192;2022-10-29T13:58:26;10.98;;;5.22;;
9809;SDS011;4944;52.514;13.192;2022-10-29T14:00:56;12.88;;;5.90;;
9809;SDS011;4944;52.514;13.192;2022-10-29T14:03:28;9.77;;;5.63;;
9809;SDS011;4944;52.514;13.192;2022-10-29T14:06:01;7.45;;;4.70;;
9809;SDS011;4944;52.514;13.192;2022-10-29T14:08:34;9.02;;;5.03;;
9809;SDS011;4944;52.514;13.192;2022-10-29T14:11:11;10.73;;;5.15;;
9809;SDS011;4944;52.514;13.192;2022-10-29T14:13:42;8.45;;;5.07;;
9809;SDS011;4944;52.514;13.192;2022-10-29T14:16:13;13.18;;;5.03;;
9809;SDS011;4944;52.514;13.192;2022-10-29T14:18:43;7.15;;;4.22;;
9809;SDS011;4944;52.514;13.192;2022-10-29T14:21:14;6.43;;;5.30;;
9809;SDS011;4944;52.514;13.192;2022-10-29T14:23:55;7.63;;;5.00;;
9809;SDS011;4944;52.514;13.192;2022-10-29T14:26:23;11.38;;;4.78;;
9809;SDS011;4944;52.514;13.192;2022-10-29T14:28:51;9.30;;;5.10;;
9809;SDS011;4944;52.514;13.192;2022-10-29T14:31:19;15.00;;;5.70;;
9809;SDS011;4944;52.514;13.192;2022-10-29T14:33:55;6.90;;;5.53;;
9809;SDS011;4944;52.514;13.192;2022-10-29T14:36:27;10.65;;;5.60;;
9809;SDS011;4944;52.514;13.192;2022-10-29T14:39:01;8.23;;;5.03;;
9809;SDS011;4944;52.514;13.192;2022-10-29T14:41:32;8.70;;;4.60;;
9809;SDS011;4944;52.514;13.192;2022-10-29T14:44:03;7.53;;;4.88;;
9809;SDS011;4944;52.514;13.192;2022-10-29T14:46:35;10.57;;;5.37;;
9809;SDS011;4944;52.514;13.192;2022-10-29T14:49:16;13.82;;;5.32;;
9809;SDS011;4944;52.514;13.192;2022-10-29T14:51:49;11.90;;;5.28;;
9809;SDS011;4944;52.514;13.192;2022-10-29T14:54:19;9.02;;;5.65;;
9809;SDS011;4944;52.514;13.192;2022-10-29T14:56:49;9.18;;;5.47;;
9809;SDS011;4944;52.514;13.192;2022-10-29T14:59:20;10.05;;;4.95;;
9809;SDS011;4944;52.514;13.192;2022-10-29T15:01:49;11.65;;;5.55;;
9809;SDS011;4944;52.514;13.192;2022-10-29T15:04:19;8.48;;;5.30;;
9809;SDS011;4944;52.514;13.192;2022-10-29T15:06:48;13.27;;;5.05;;
9809;SDS011;4944;52.514;13.192;2022-10-29T15:09:16;7.35;;;5.20;;
9809;SDS011;4944;52.514;13.192;2022-10-29T15:12:01;8.25;;;5.70;;
9809;SDS011;4944;52.514;13.192;2022-10-29T15:14:33;10.32;;;5.85;;
9809;SDS011;4944;52.514;13.192;2022-10-29T15:17:06;13.57;;;5.50;;
9809;SDS011;4944;52.514;13.192;2022-10-29T15:19:40;9.48;;;5.47;;
9809;SDS011;4944;52.514;13.192;2022-10-29T15:22:09;14.57;;;6.03;;
9809;SDS011;4944;52.514;13.192;2022-10-29T15:24:36;13.07;;;6.40;;
9809;SDS011;4944;52.514;13.192;2022-10-29T15:27:03;11.13;;;5.22;;
9809;SDS011;4944;52.514;13.192;2022-10-29T15:29:32;12.80;;;6.10;;
9809;SDS011;4944;52.514;13.192;2022-10-29T15:32:04;14.18;;;6.15;;
9809;SDS011;4944;52.514;13.192;2022-10-29T15:34:32;10.80;;;5.70;;